LKE9832 ZPDQ-ZPPP
Flight info
| Callsign | LKE9832 |
|---|---|
| Flight time | 0h 49m |
| Altitude | 26600 |
| Route | P30 H87 CEH H117 PAN H118 NIXAS |
| Aircraft | B738/M-SDE2E3FGHIRWXY/LB1 |
Departure
| Time | 2026-05-08 13:47 |
|---|---|
| Airport | Diqing Shangri-La Airport (ZPDQ) |
Arrival
| Time | 2026-05-08 14:36 |
|---|---|
| Airport | Kunming Changshui International Airport (ZPPP) |
| Time | Latitude | Longitude | Altitude | Speed | Heading |
|---|---|---|---|---|---|
| 2026-05-08 13:23 | 27.79562 | 99.68128 | 10666 ft | 0 kts | 70° |
| 2026-05-08 13:30 | 27.79555 | 99.68108 | 10678 ft | 4 kts | 65° |
| 2026-05-08 13:31 | 27.79542 | 99.68082 | 10677 ft | 4 kts | 49° |
| 2026-05-08 13:31 | 27.79523 | 99.68065 | 10679 ft | 4 kts | 4° |
| 2026-05-08 13:31 | 27.79513 | 99.68065 | 10679 ft | 0 kts | 340° |
| 2026-05-08 13:38 | 27.79514 | 99.68065 | 10679 ft | 1 kts | 340° |
| 2026-05-08 13:38 | 27.79535 | 99.68056 | 10684 ft | 5 kts | 339° |
| 2026-05-08 13:38 | 27.79584 | 99.68035 | 10680 ft | 9 kts | 339° |
| 2026-05-08 13:38 | 27.79657 | 99.68005 | 10676 ft | 13 kts | 340° |
| 2026-05-08 13:39 | 27.79705 | 99.67969 | 10676 ft | 1 kts | 285° |
| 2026-05-08 13:39 | 27.79704 | 99.67962 | 10680 ft | 2 kts | 261° |
| 2026-05-08 13:39 | 27.79700 | 99.67944 | 10676 ft | 3 kts | 251° |
| 2026-05-08 13:39 | 27.79691 | 99.67919 | 10679 ft | 4 kts | 247° |
| 2026-05-08 13:40 | 27.79678 | 99.67886 | 10678 ft | 6 kts | 248° |
| 2026-05-08 13:40 | 27.79661 | 99.67833 | 10677 ft | 8 kts | 250° |
| 2026-05-08 13:40 | 27.79640 | 99.67766 | 10677 ft | 10 kts | 251° |
| 2026-05-08 13:40 | 27.79613 | 99.67680 | 10678 ft | 13 kts | 254° |
| 2026-05-08 13:41 | 27.79635 | 99.67609 | 10681 ft | 8 kts | 346° |
| 2026-05-08 13:41 | 27.79693 | 99.67598 | 10679 ft | 9 kts | 351° |
| 2026-05-08 13:41 | 27.79756 | 99.67576 | 10684 ft | 10 kts | 340° |
| 2026-05-08 13:41 | 27.79820 | 99.67550 | 10683 ft | 10 kts | 340° |
| 2026-05-08 13:42 | 27.79881 | 99.67524 | 10687 ft | 9 kts | 340° |
| 2026-05-08 13:42 | 27.79943 | 99.67498 | 10689 ft | 10 kts | 340° |
| 2026-05-08 13:42 | 27.80018 | 99.67469 | 10690 ft | 13 kts | 340° |
| 2026-05-08 13:42 | 27.80107 | 99.67432 | 10693 ft | 14 kts | 340° |
| 2026-05-08 13:43 | 27.80201 | 99.67394 | 10699 ft | 14 kts | 340° |
| 2026-05-08 13:43 | 27.80290 | 99.67357 | 10701 ft | 13 kts | 340° |
| 2026-05-08 13:43 | 27.80375 | 99.67323 | 10702 ft | 13 kts | 340° |
| 2026-05-08 13:43 | 27.80458 | 99.67289 | 10700 ft | 13 kts | 340° |
| 2026-05-08 13:44 | 27.80539 | 99.67255 | 10702 ft | 12 kts | 339° |
| 2026-05-08 13:44 | 27.80618 | 99.67222 | 10700 ft | 12 kts | 340° |
| 2026-05-08 13:44 | 27.80699 | 99.67183 | 10697 ft | 10 kts | 319° |
| 2026-05-08 13:44 | 27.80750 | 99.67195 | 10702 ft | 6 kts | 70° |
| 2026-05-08 13:45 | 27.80738 | 99.67207 | 10700 ft | 3 kts | 162° |
| 2026-05-08 13:45 | 27.80721 | 99.67206 | 10703 ft | 3 kts | 195° |
| 2026-05-08 13:45 | 27.80702 | 99.67198 | 10699 ft | 3 kts | 204° |
| 2026-05-08 13:45 | 27.80675 | 99.67199 | 10701 ft | 5 kts | 161° |
| 2026-05-08 13:46 | 27.80636 | 99.67215 | 10703 ft | 8 kts | 160° |
| 2026-05-08 13:46 | 27.80497 | 99.67273 | 10703 ft | 49 kts | 160° |
| 2026-05-08 13:46 | 27.79978 | 99.67486 | 10689 ft | 109 kts | 160° |
| 2026-05-08 13:46 | 27.79152 | 99.67826 | 10669 ft | 146 kts | 160° |
| 2026-05-08 13:47 | 27.78045 | 99.68262 | 10708 ft | 188 kts | 162° |
| 2026-05-08 13:47 | 27.76768 | 99.68821 | 11200 ft | 195 kts | 154° |
| 2026-05-08 13:47 | 27.75561 | 99.69533 | 11837 ft | 197 kts | 155° |
| 2026-05-08 13:47 | 27.74344 | 99.70184 | 12350 ft | 195 kts | 158° |
| 2026-05-08 13:48 | 27.73106 | 99.70832 | 12528 ft | 212 kts | 160° |
| 2026-05-08 13:48 | 27.71702 | 99.71555 | 12704 ft | 231 kts | 161° |
| 2026-05-08 13:48 | 27.70132 | 99.72144 | 12855 ft | 247 kts | 169° |
| 2026-05-08 13:48 | 27.68388 | 99.72537 | 12997 ft | 264 kts | 174° |
| 2026-05-08 13:49 | 27.66568 | 99.72913 | 13311 ft | 275 kts | 166° |
| 2026-05-08 13:49 | 27.64789 | 99.73753 | 13815 ft | 282 kts | 153° |
| 2026-05-08 13:49 | 27.63129 | 99.74942 | 14441 ft | 282 kts | 150° |
| 2026-05-08 13:49 | 27.61442 | 99.76130 | 14889 ft | 291 kts | 152° |
| 2026-05-08 13:50 | 27.59717 | 99.77319 | 15602 ft | 290 kts | 152° |
| 2026-05-08 13:50 | 27.57985 | 99.78506 | 16253 ft | 294 kts | 153° |
| 2026-05-08 13:50 | 27.56210 | 99.79719 | 16815 ft | 301 kts | 153° |
| 2026-05-08 13:50 | 27.54409 | 99.80950 | 17447 ft | 305 kts | 153° |
| 2026-05-08 13:51 | 27.52586 | 99.82196 | 18081 ft | 309 kts | 153° |
| 2026-05-08 13:51 | 27.50729 | 99.83464 | 18608 ft | 314 kts | 153° |
| 2026-05-08 13:51 | 27.48855 | 99.84742 | 19144 ft | 317 kts | 154° |
| 2026-05-08 13:51 | 27.47048 | 99.86228 | 19597 ft | 331 kts | 140° |
| 2026-05-08 13:52 | 27.45424 | 99.88184 | 19728 ft | 352 kts | 136° |
| 2026-05-08 13:52 | 27.43766 | 99.90311 | 19871 ft | 372 kts | 135° |
| 2026-05-08 13:52 | 27.42025 | 99.92562 | 19966 ft | 390 kts | 135° |
| 2026-05-08 13:52 | 27.40197 | 99.94907 | 20097 ft | 405 kts | 135° |
| 2026-05-08 13:53 | 27.38299 | 99.97320 | 20290 ft | 418 kts | 136° |
| 2026-05-08 13:53 | 27.36352 | 99.99776 | 20682 ft | 424 kts | 136° |
| 2026-05-08 13:53 | 27.34375 | 100.02255 | 21147 ft | 428 kts | 136° |
| 2026-05-08 13:53 | 27.32381 | 100.04750 | 21661 ft | 431 kts | 136° |
| 2026-05-08 13:54 | 27.30358 | 100.07262 | 22061 ft | 436 kts | 137° |
| 2026-05-08 13:54 | 27.28314 | 100.09805 | 22525 ft | 440 kts | 137° |
| 2026-05-08 13:54 | 27.26248 | 100.12364 | 22883 ft | 445 kts | 137° |
| 2026-05-08 13:54 | 27.24171 | 100.14951 | 23274 ft | 448 kts | 137° |
| 2026-05-08 13:55 | 27.22073 | 100.17565 | 23660 ft | 453 kts | 137° |
| 2026-05-08 13:55 | 27.19957 | 100.20199 | 23976 ft | 455 kts | 137° |
| 2026-05-08 13:55 | 27.15685 | 100.25505 | 24657 ft | 460 kts | 138° |
| 2026-05-08 13:56 | 27.13536 | 100.28167 | 24999 ft | 461 kts | 138° |
| 2026-05-08 13:56 | 27.11274 | 100.30701 | 25311 ft | 457 kts | 146° |
| 2026-05-08 13:56 | 27.08846 | 100.33015 | 25585 ft | 458 kts | 147° |
| 2026-05-08 13:56 | 27.06402 | 100.35238 | 25897 ft | 459 kts | 148° |
| 2026-05-08 13:57 | 27.03920 | 100.37483 | 26299 ft | 459 kts | 148° |
| 2026-05-08 13:57 | 27.01439 | 100.39746 | 26590 ft | 462 kts | 148° |
| 2026-05-08 13:57 | 26.98938 | 100.42045 | 26585 ft | 469 kts | 147° |
| 2026-05-08 13:57 | 26.96408 | 100.44377 | 26592 ft | 473 kts | 147° |
| 2026-05-08 13:58 | 26.93858 | 100.46737 | 26613 ft | 476 kts | 147° |
| 2026-05-08 13:58 | 26.91322 | 100.49107 | 26609 ft | 475 kts | 147° |
| 2026-05-08 13:58 | 26.88788 | 100.51489 | 26577 ft | 475 kts | 147° |
| 2026-05-08 13:58 | 26.86272 | 100.53879 | 26555 ft | 471 kts | 146° |
| 2026-05-08 13:59 | 26.83817 | 100.56297 | 26605 ft | 470 kts | 144° |
| 2026-05-08 13:59 | 26.81354 | 100.58691 | 26567 ft | 468 kts | 146° |
| 2026-05-08 13:59 | 26.78824 | 100.60950 | 26595 ft | 464 kts | 152° |
| 2026-05-08 13:59 | 26.76171 | 100.63007 | 26587 ft | 466 kts | 150° |
| 2026-05-08 14:00 | 26.73632 | 100.65308 | 26604 ft | 472 kts | 146° |
| 2026-05-08 14:00 | 26.71160 | 100.67747 | 26606 ft | 474 kts | 145° |
| 2026-05-08 14:00 | 26.68844 | 100.70350 | 26588 ft | 485 kts | 134° |
| 2026-05-08 14:00 | 26.67013 | 100.73571 | 26618 ft | 494 kts | 121° |
| 2026-05-08 14:01 | 26.65823 | 100.77167 | 26617 ft | 496 kts | 105° |
| 2026-05-08 14:01 | 26.65270 | 100.80990 | 26624 ft | 499 kts | 100° |
| 2026-05-08 14:01 | 26.64824 | 100.84836 | 26611 ft | 500 kts | 99° |
| 2026-05-08 14:01 | 26.64393 | 100.88699 | 26642 ft | 500 kts | 100° |
| 2026-05-08 14:02 | 26.63950 | 100.92555 | 26633 ft | 501 kts | 100° |
| 2026-05-08 14:02 | 26.63489 | 100.96411 | 26628 ft | 501 kts | 101° |
| 2026-05-08 14:02 | 26.63019 | 101.00188 | 26628 ft | 501 kts | 101° |
| 2026-05-08 14:02 | 26.62530 | 101.04012 | 26626 ft | 501 kts | 101° |
| 2026-05-08 14:03 | 26.62030 | 101.07868 | 26644 ft | 501 kts | 101° |
| 2026-05-08 14:03 | 26.61528 | 101.11715 | 26635 ft | 501 kts | 101° |
| 2026-05-08 14:03 | 26.61025 | 101.15566 | 26630 ft | 501 kts | 101° |
| 2026-05-08 14:03 | 26.60524 | 101.19405 | 26645 ft | 501 kts | 101° |
| 2026-05-08 14:04 | 26.60019 | 101.23263 | 26638 ft | 501 kts | 101° |
| 2026-05-08 14:04 | 26.59516 | 101.27113 | 26639 ft | 501 kts | 101° |
| 2026-05-08 14:04 | 26.59018 | 101.30911 | 26628 ft | 501 kts | 101° |
| 2026-05-08 14:04 | 26.58514 | 101.34759 | 26621 ft | 499 kts | 101° |
| 2026-05-08 14:05 | 26.58011 | 101.38587 | 26624 ft | 498 kts | 101° |
| 2026-05-08 14:05 | 26.57507 | 101.42414 | 26626 ft | 498 kts | 101° |
| 2026-05-08 14:05 | 26.57002 | 101.46235 | 26622 ft | 497 kts | 101° |
| 2026-05-08 14:05 | 26.56499 | 101.50038 | 26635 ft | 496 kts | 101° |
| 2026-05-08 14:06 | 26.55993 | 101.53851 | 26636 ft | 496 kts | 101° |
| 2026-05-08 14:06 | 26.55487 | 101.57657 | 26630 ft | 496 kts | 101° |
| 2026-05-08 14:06 | 26.54980 | 101.61467 | 26648 ft | 496 kts | 101° |
| 2026-05-08 14:06 | 26.54470 | 101.65288 | 26644 ft | 497 kts | 101° |
| 2026-05-08 14:07 | 26.53960 | 101.69107 | 26645 ft | 498 kts | 101° |
| 2026-05-08 14:07 | 26.53448 | 101.72928 | 26635 ft | 499 kts | 101° |
| 2026-05-08 14:07 | 26.52930 | 101.76764 | 26653 ft | 499 kts | 102° |
| 2026-05-08 14:07 | 26.52174 | 101.80532 | 26656 ft | 497 kts | 110° |
| 2026-05-08 14:08 | 26.50927 | 101.84098 | 26663 ft | 491 kts | 119° |
| 2026-05-08 14:08 | 26.49476 | 101.87554 | 26662 ft | 492 kts | 120° |
| 2026-05-08 14:08 | 26.48009 | 101.91008 | 26674 ft | 492 kts | 120° |
| 2026-05-08 14:08 | 26.46550 | 101.94464 | 26684 ft | 493 kts | 120° |
| 2026-05-08 14:09 | 26.45102 | 101.97928 | 26684 ft | 493 kts | 119° |
| 2026-05-08 14:09 | 26.43725 | 102.01253 | 26671 ft | 494 kts | 119° |
| 2026-05-08 14:09 | 26.42291 | 102.04737 | 26691 ft | 493 kts | 119° |
| 2026-05-08 14:09 | 26.40865 | 102.08211 | 26693 ft | 493 kts | 119° |
| 2026-05-08 14:10 | 26.39438 | 102.11688 | 26688 ft | 492 kts | 118° |
| 2026-05-08 14:10 | 26.38016 | 102.15150 | 26700 ft | 491 kts | 119° |
| 2026-05-08 14:10 | 26.36607 | 102.18575 | 26688 ft | 491 kts | 119° |
| 2026-05-08 14:10 | 26.35164 | 102.22075 | 26718 ft | 491 kts | 119° |
| 2026-05-08 14:11 | 26.33736 | 102.25536 | 26709 ft | 491 kts | 118° |
| 2026-05-08 14:11 | 26.32309 | 102.28989 | 26721 ft | 491 kts | 118° |
| 2026-05-08 14:11 | 26.30880 | 102.32449 | 26722 ft | 491 kts | 118° |
| 2026-05-08 14:11 | 26.29449 | 102.35909 | 26723 ft | 492 kts | 118° |
| 2026-05-08 14:12 | 26.28019 | 102.39369 | 26754 ft | 490 kts | 118° |
| 2026-05-08 14:12 | 26.26590 | 102.42821 | 26732 ft | 491 kts | 118° |
| 2026-05-08 14:12 | 26.25159 | 102.46273 | 26744 ft | 492 kts | 118° |
| 2026-05-08 14:12 | 26.23721 | 102.49736 | 26758 ft | 493 kts | 118° |
| 2026-05-08 14:13 | 26.22300 | 102.53154 | 26778 ft | 494 kts | 118° |
| 2026-05-08 14:13 | 26.20854 | 102.56634 | 26776 ft | 495 kts | 118° |
| 2026-05-08 14:13 | 26.19392 | 102.60121 | 26779 ft | 496 kts | 121° |
| 2026-05-08 14:13 | 26.17456 | 102.63235 | 26797 ft | 484 kts | 140° |
| 2026-05-08 14:14 | 26.14863 | 102.65500 | 26837 ft | 469 kts | 157° |
| 2026-05-08 14:14 | 26.11908 | 102.66927 | 26810 ft | 458 kts | 171° |
| 2026-05-08 14:14 | 26.08839 | 102.67647 | 26797 ft | 446 kts | 182° |
| 2026-05-08 14:14 | 26.05792 | 102.67577 | 26826 ft | 433 kts | 194° |
| 2026-05-08 14:15 | 26.02817 | 102.67108 | 26824 ft | 431 kts | 196° |
| 2026-05-08 14:15 | 25.99885 | 102.66599 | 26807 ft | 431 kts | 195° |
| 2026-05-08 14:15 | 25.96921 | 102.66080 | 26813 ft | 431 kts | 195° |
| 2026-05-08 14:15 | 25.93957 | 102.65576 | 26837 ft | 431 kts | 195° |
| 2026-05-08 14:16 | 25.91004 | 102.65089 | 26841 ft | 431 kts | 195° |
| 2026-05-08 14:16 | 25.88035 | 102.64610 | 26825 ft | 430 kts | 195° |
| 2026-05-08 14:16 | 25.85074 | 102.64139 | 26834 ft | 429 kts | 195° |
| 2026-05-08 14:16 | 25.82123 | 102.63672 | 26834 ft | 428 kts | 195° |
| 2026-05-08 14:17 | 25.79182 | 102.63207 | 26838 ft | 427 kts | 195° |
| 2026-05-08 14:17 | 25.76239 | 102.62741 | 26841 ft | 427 kts | 195° |
| 2026-05-08 14:17 | 25.73299 | 102.62275 | 26819 ft | 427 kts | 195° |
| 2026-05-08 14:17 | 25.70361 | 102.61808 | 26798 ft | 426 kts | 195° |
| 2026-05-08 14:18 | 25.67489 | 102.61353 | 26811 ft | 416 kts | 195° |
| 2026-05-08 14:18 | 25.64658 | 102.60920 | 26664 ft | 409 kts | 194° |
| 2026-05-08 14:18 | 25.61837 | 102.60516 | 26208 ft | 405 kts | 194° |
| 2026-05-08 14:18 | 25.59062 | 102.60129 | 25775 ft | 402 kts | 193° |
| 2026-05-08 14:19 | 25.56300 | 102.59748 | 25331 ft | 399 kts | 193° |
| 2026-05-08 14:19 | 25.53556 | 102.59367 | 24861 ft | 397 kts | 193° |
| 2026-05-08 14:19 | 25.50824 | 102.58986 | 24388 ft | 394 kts | 193° |
| 2026-05-08 14:19 | 25.48106 | 102.58605 | 23923 ft | 393 kts | 193° |
| 2026-05-08 14:20 | 25.45399 | 102.58224 | 23408 ft | 391 kts | 193° |
| 2026-05-08 14:20 | 25.42704 | 102.57845 | 22922 ft | 389 kts | 193° |
| 2026-05-08 14:20 | 25.40031 | 102.57462 | 22427 ft | 386 kts | 193° |
| 2026-05-08 14:20 | 25.37423 | 102.57097 | 21977 ft | 381 kts | 192° |
| 2026-05-08 14:21 | 25.34806 | 102.56735 | 21543 ft | 377 kts | 193° |
| 2026-05-08 14:21 | 25.32216 | 102.56372 | 21105 ft | 374 kts | 192° |
| 2026-05-08 14:21 | 25.29636 | 102.56010 | 20681 ft | 373 kts | 192° |
| 2026-05-08 14:21 | 25.27065 | 102.55649 | 20228 ft | 372 kts | 192° |
| 2026-05-08 14:22 | 25.24508 | 102.55290 | 19776 ft | 370 kts | 192° |
| 2026-05-08 14:22 | 25.21959 | 102.54933 | 19342 ft | 368 kts | 192° |
| 2026-05-08 14:22 | 25.19423 | 102.54578 | 18909 ft | 365 kts | 192° |
| 2026-05-08 14:22 | 25.16905 | 102.54225 | 18452 ft | 365 kts | 192° |
| 2026-05-08 14:23 | 25.14392 | 102.53872 | 17988 ft | 363 kts | 192° |
| 2026-05-08 14:23 | 25.11892 | 102.53521 | 17524 ft | 361 kts | 192° |
| 2026-05-08 14:23 | 25.09403 | 102.53173 | 17079 ft | 359 kts | 192° |
| 2026-05-08 14:23 | 25.06933 | 102.52827 | 16639 ft | 357 kts | 192° |
| 2026-05-08 14:24 | 25.04488 | 102.52485 | 16232 ft | 354 kts | 191° |
| 2026-05-08 14:24 | 25.02869 | 102.52259 | 15861 ft | 355 kts | 191° |
| 2026-05-08 14:24 | 25.00425 | 102.51918 | 15538 ft | 350 kts | 191° |
| 2026-05-08 14:24 | 24.98037 | 102.51585 | 15294 ft | 343 kts | 191° |
| 2026-05-08 14:25 | 24.95690 | 102.51259 | 15114 ft | 336 kts | 191° |
| 2026-05-08 14:25 | 24.93402 | 102.50940 | 14955 ft | 327 kts | 191° |
| 2026-05-08 14:25 | 24.91171 | 102.50629 | 14821 ft | 319 kts | 191° |
| 2026-05-08 14:25 | 24.88999 | 102.50325 | 14677 ft | 311 kts | 191° |
| 2026-05-08 14:26 | 24.86884 | 102.50030 | 14548 ft | 303 kts | 191° |
| 2026-05-08 14:26 | 24.84825 | 102.49743 | 14422 ft | 295 kts | 191° |
| 2026-05-08 14:26 | 24.82810 | 102.49463 | 14295 ft | 288 kts | 191° |
| 2026-05-08 14:26 | 24.80841 | 102.49263 | 14177 ft | 284 kts | 181° |
| 2026-05-08 14:27 | 24.78949 | 102.49862 | 14034 ft | 286 kts | 153° |
| 2026-05-08 14:27 | 24.77434 | 102.51237 | 13956 ft | 283 kts | 135° |
| 2026-05-08 14:27 | 24.76182 | 102.52919 | 13628 ft | 285 kts | 130° |
| 2026-05-08 14:27 | 24.74985 | 102.54644 | 13360 ft | 283 kts | 130° |
| 2026-05-08 14:28 | 24.74016 | 102.56529 | 13053 ft | 288 kts | 107° |
| 2026-05-08 14:28 | 24.73906 | 102.58718 | 12778 ft | 289 kts | 78° |
| 2026-05-08 14:28 | 24.74697 | 102.60716 | 12509 ft | 285 kts | 51° |
| 2026-05-08 14:28 | 24.76106 | 102.62213 | 12239 ft | 281 kts | 36° |
| 2026-05-08 14:29 | 24.77653 | 102.63519 | 11977 ft | 280 kts | 36° |
| 2026-05-08 14:29 | 24.79198 | 102.64824 | 11703 ft | 280 kts | 36° |
| 2026-05-08 14:29 | 24.80738 | 102.66132 | 11425 ft | 279 kts | 37° |
| 2026-05-08 14:29 | 24.82267 | 102.67446 | 11161 ft | 279 kts | 37° |
| 2026-05-08 14:30 | 24.83790 | 102.68761 | 10896 ft | 278 kts | 38° |
| 2026-05-08 14:30 | 24.85305 | 102.70072 | 10725 ft | 274 kts | 38° |
| 2026-05-08 14:30 | 24.86783 | 102.71353 | 10609 ft | 267 kts | 38° |
| 2026-05-08 14:30 | 24.88229 | 102.72605 | 10503 ft | 261 kts | 38° |
| 2026-05-08 14:31 | 24.89626 | 102.73817 | 10429 ft | 249 kts | 38° |
| 2026-05-08 14:31 | 24.90954 | 102.74969 | 10299 ft | 238 kts | 38° |
| 2026-05-08 14:31 | 24.92226 | 102.76073 | 10196 ft | 228 kts | 39° |
| 2026-05-08 14:32 | 24.94686 | 102.78209 | 9996 ft | 226 kts | 39° |
| 2026-05-08 14:32 | 24.95910 | 102.79269 | 9881 ft | 222 kts | 38° |
| 2026-05-08 14:32 | 24.97130 | 102.80262 | 9787 ft | 213 kts | 36° |
| 2026-05-08 14:32 | 24.98310 | 102.81255 | 9794 ft | 214 kts | 38° |
| 2026-05-08 14:33 | 24.99477 | 102.82269 | 9694 ft | 215 kts | 39° |
| 2026-05-08 14:33 | 25.00656 | 102.83302 | 9432 ft | 219 kts | 39° |
| 2026-05-08 14:33 | 25.01828 | 102.84330 | 9154 ft | 215 kts | 39° |
| 2026-05-08 14:33 | 25.02982 | 102.85341 | 8867 ft | 208 kts | 39° |
| 2026-05-08 14:34 | 25.04077 | 102.86300 | 8629 ft | 196 kts | 40° |
| 2026-05-08 14:34 | 25.05128 | 102.87221 | 8399 ft | 187 kts | 40° |
| 2026-05-08 14:34 | 25.06139 | 102.88109 | 8119 ft | 187 kts | 40° |
| 2026-05-08 14:34 | 25.07134 | 102.88979 | 7907 ft | 179 kts | 40° |
| 2026-05-08 14:35 | 25.08077 | 102.89807 | 7629 ft | 172 kts | 38° |
| 2026-05-08 14:35 | 25.09008 | 102.90618 | 7356 ft | 166 kts | 37° |
| 2026-05-08 14:35 | 25.09905 | 102.91392 | 7112 ft | 168 kts | 37° |
| 2026-05-08 14:35 | 25.10797 | 102.92196 | 6925 ft | 164 kts | 36° |
| 2026-05-08 14:36 | 25.11609 | 102.92900 | 6903 ft | 123 kts | 38° |
| 2026-05-08 14:36 | 25.12108 | 102.93335 | 6898 ft | 63 kts | 38° |
| 2026-05-08 14:36 | 25.12304 | 102.93627 | 6899 ft | 21 kts | 66° |
| 2026-05-08 14:36 | 25.12332 | 102.93701 | 6899 ft | 0 kts | 83° |
| 2026-05-08 14:37 | 25.12332 | 102.93702 | 6899 ft | 1 kts | 83° |
| 2026-05-08 14:37 | 25.12330 | 102.93719 | 6898 ft | 4 kts | 112° |
| 2026-05-08 14:38 | 25.12299 | 102.93734 | 6898 ft | 7 kts | 185° |
| 2026-05-08 14:38 | 25.12253 | 102.93704 | 6898 ft | 9 kts | 218° |
| 2026-05-08 14:38 | 25.12198 | 102.93655 | 6898 ft | 12 kts | 219° |
| 2026-05-08 14:38 | 25.12129 | 102.93595 | 6899 ft | 14 kts | 218° |
| 2026-05-08 14:39 | 25.12050 | 102.93526 | 6899 ft | 16 kts | 218° |
| 2026-05-08 14:39 | 25.11959 | 102.93448 | 6899 ft | 18 kts | 218° |
| 2026-05-08 14:39 | 25.11859 | 102.93360 | 6900 ft | 19 kts | 218° |
| 2026-05-08 14:39 | 25.11754 | 102.93269 | 6900 ft | 19 kts | 218° |
| 2026-05-08 14:40 | 25.11653 | 102.93182 | 6901 ft | 18 kts | 218° |
| 2026-05-08 14:40 | 25.11556 | 102.93097 | 6902 ft | 18 kts | 219° |
| 2026-05-08 14:40 | 25.11462 | 102.93015 | 6902 ft | 17 kts | 218° |
| 2026-05-08 14:40 | 25.11371 | 102.92936 | 6903 ft | 16 kts | 218° |
| 2026-05-08 14:41 | 25.11278 | 102.92878 | 6903 ft | 16 kts | 164° |
| 2026-05-08 14:41 | 25.11202 | 102.92924 | 6902 ft | 11 kts | 201° |
| 2026-05-08 14:41 | 25.11148 | 102.92859 | 6903 ft | 12 kts | 225° |
| 2026-05-08 14:41 | 25.11076 | 102.92801 | 6903 ft | 14 kts | 219° |
| 2026-05-08 14:42 | 25.10997 | 102.92729 | 6915 ft | 16 kts | 219° |
| 2026-05-08 14:42 | 25.10908 | 102.92654 | 6908 ft | 16 kts | 216° |
| 2026-05-08 14:42 | 25.10822 | 102.92580 | 6904 ft | 15 kts | 218° |
| 2026-05-08 14:42 | 25.10734 | 102.92519 | 6906 ft | 15 kts | 192° |
| 2026-05-08 14:43 | 25.10694 | 102.92546 | 6904 ft | 6 kts | 126° |
| 2026-05-08 14:43 | 25.10668 | 102.92586 | 6904 ft | 6 kts | 125° |
| 2026-05-08 14:43 | 25.10655 | 102.92637 | 6911 ft | 9 kts | 84° |
| 2026-05-08 14:43 | 25.10652 | 102.92706 | 6903 ft | 10 kts | 134° |
| 2026-05-08 14:44 | 25.10579 | 102.92745 | 6903 ft | 14 kts | 153° |
| 2026-05-08 14:44 | 25.10484 | 102.92797 | 6902 ft | 16 kts | 155° |
| 2026-05-08 14:44 | 25.10384 | 102.92830 | 6902 ft | 12 kts | 168° |
| 2026-05-08 14:44 | 25.10352 | 102.92835 | 6901 ft | 0 kts | 164° |
| 2026-05-08 14:45 | 25.10353 | 102.92843 | 6901 ft | 2 kts | 76° |
| 2026-05-08 14:45 | 25.10357 | 102.92859 | 6901 ft | 2 kts | 82° |
| 2026-05-08 14:45 | 25.10352 | 102.92880 | 6901 ft | 4 kts | 106° |
| 2026-05-08 14:45 | 25.10344 | 102.92909 | 6900 ft | 2 kts | 106° |
| 2026-05-08 14:46 | 25.10344 | 102.92910 | 6900 ft | 0 kts | 106° |